createdAt,value
2022-09-02T00:01:06.003Z,1.6
2022-09-02T00:02:13.841Z,2.4
2022-09-02T00:03:23.622Z,1.3
2022-09-02T00:04:33.021Z,1.5
2022-09-02T00:05:42.691Z,1.5
2022-09-02T00:06:51.349Z,1.7
2022-09-02T00:08:00.067Z,1
2022-09-02T00:09:09.723Z,1.4
2022-09-02T00:10:18.383Z,1.6
2022-09-02T00:11:27.168Z,2.8
2022-09-02T00:12:36.819Z,1.5
2022-09-02T00:13:46.531Z,1.4
2022-09-02T00:14:55.174Z,0.9
2022-09-02T00:16:03.881Z,1.6
2022-09-02T00:17:12.521Z,1.1
2022-09-02T00:18:22.167Z,1.4
2022-09-02T00:19:31.855Z,1.5
2022-09-02T00:20:40.519Z,1
2022-09-02T00:21:50.179Z,1
2022-09-02T00:22:58.823Z,1.3
2022-09-02T00:24:07.479Z,1.7
2022-09-02T00:25:15.186Z,1.2
2022-09-02T00:26:22.849Z,1.1
2022-09-02T00:27:32.590Z,1.2
2022-09-02T00:28:49.199Z,1.9
2022-09-02T00:29:49.858Z,1.1
2022-09-02T00:30:59.536Z,1.6
2022-09-02T00:32:08.265Z,1
2022-09-02T00:33:17.954Z,1.5
2022-09-02T00:34:26.521Z,1.1
2022-09-02T00:35:35.201Z,1.3
2022-09-02T00:36:42.935Z,1
2022-09-02T00:37:50.622Z,1.1
2022-09-02T00:39:00.294Z,1.7
2022-09-02T00:40:08.985Z,2.2
2022-09-02T00:41:16.608Z,1.8
2022-09-02T00:42:26.371Z,0.9
2022-09-02T00:43:35.024Z,1.2
2022-09-02T00:44:43.691Z,1.2
2022-09-02T00:45:52.385Z,1.3
2022-09-02T00:47:01.007Z,1.3
2022-09-02T00:48:10.678Z,1.4
2022-09-02T00:49:19.340Z,1.4
2022-09-02T00:50:27.006Z,1.9
2022-09-02T00:51:36.665Z,1.6
2022-09-02T00:52:45.317Z,1.6
2022-09-02T00:53:54.983Z,2.1
2022-09-02T00:55:04.638Z,1.1
2022-09-02T00:56:11.297Z,1.4
2022-09-02T00:57:20.952Z,1.8
2022-09-02T00:58:29.663Z,1.3
2022-09-02T00:59:36.363Z,1.8
2022-09-02T01:00:46.136Z,1.4
2022-09-02T01:01:54.803Z,1.3
2022-09-02T01:03:03.369Z,1.1
2022-09-02T01:04:12.028Z,1.7
2022-09-02T01:05:20.693Z,2.1
2022-09-02T01:06:30.368Z,1.2
2022-09-02T01:07:39.026Z,2
2022-09-02T01:08:47.682Z,1.3
2022-09-02T01:09:57.369Z,1.7
2022-09-02T01:11:07.033Z,1.4
2022-09-02T01:12:15.714Z,2.8
2022-09-02T01:13:25.381Z,1.6
2022-09-02T01:14:34.065Z,1.6
2022-09-02T01:15:43.727Z,1.4
2022-09-02T01:16:52.398Z,1.4
2022-09-02T01:18:01.089Z,2.2
2022-09-02T01:19:10.783Z,1.7
2022-09-02T01:20:19.438Z,1.4
2022-09-02T01:21:30.085Z,1.1
2022-09-02T01:22:38.775Z,1.6
2022-09-02T01:23:46.405Z,1.8
2022-09-02T01:24:56.061Z,3.6
2022-09-02T01:26:04.719Z,1.6
2022-09-02T01:27:13.358Z,1.1
2022-09-02T01:28:23.145Z,1.4
2022-09-02T01:29:31.782Z,1.1
2022-09-02T01:30:40.432Z,2.3
2022-09-02T01:31:49.135Z,1.3
2022-09-02T01:32:56.803Z,2.7
2022-09-02T01:34:06.517Z,1.2
2022-09-02T01:35:15.161Z,1.8
2022-09-02T01:36:22.819Z,1.1
2022-09-02T01:37:32.481Z,1.1
2022-09-02T01:38:41.133Z,1.4
2022-09-02T01:39:50.810Z,1.2
2022-09-02T01:40:59.473Z,1.3
2022-09-02T01:42:07.143Z,1.4
2022-09-02T01:43:16.818Z,2.1
2022-09-02T01:44:25.488Z,1.2
2022-09-02T01:45:35.274Z,1.3
2022-09-02T01:46:44.986Z,1.7
2022-09-02T01:47:54.607Z,0.8
2022-09-02T01:49:03.288Z,1.1
2022-09-02T01:50:12.960Z,1.3
2022-09-02T01:51:21.649Z,1.5
2022-09-02T01:52:31.304Z,1.3
2022-09-02T01:53:39.956Z,1.1
2022-09-02T01:54:47.598Z,1.6
2022-09-02T01:55:57.259Z,2.5
2022-09-02T01:57:06.937Z,1.4
2022-09-02T01:58:15.597Z,1.8
2022-09-02T01:59:24.255Z,1
2022-09-02T02:00:33.000Z,3.4
2022-09-02T02:01:42.648Z,1.7
2022-09-02T02:02:52.313Z,1.5
2022-09-02T02:03:59.960Z,2.2
2022-09-02T02:05:09.613Z,2.2
2022-09-02T02:06:18.269Z,2.1
2022-09-02T02:07:26.920Z,1
2022-09-02T02:08:35.621Z,1.2
2022-09-02T02:09:44.297Z,1.5
2022-09-02T02:10:53.954Z,1.2
2022-09-02T02:12:02.590Z,2.7
2022-09-02T02:13:11.240Z,1.4
2022-09-02T02:14:21.023Z,1.1
2022-09-02T02:16:30.189Z,1.6
2022-09-02T02:17:38.720Z,1.5
2022-09-02T02:18:47.376Z,1.7
2022-09-02T02:19:57.083Z,1.1
2022-09-02T02:21:05.730Z,1.4
2022-09-02T02:22:14.410Z,1.6
2022-09-02T02:23:24.069Z,1.9
2022-09-02T02:24:32.712Z,2.3
2022-09-02T02:25:41.400Z,1.2
2022-09-02T02:26:50.055Z,2
2022-09-02T02:27:58.703Z,2.4
2022-09-02T02:29:09.367Z,1.4
2022-09-02T02:30:18.005Z,1.6
2022-09-02T02:31:26.889Z,2
2022-09-02T02:32:36.491Z,2.2
2022-09-02T02:33:45.146Z,2.8
2022-09-02T02:34:54.822Z,2.9
2022-09-02T02:36:03.486Z,2.2
2022-09-02T02:37:12.157Z,2.4
2022-09-02T02:38:21.827Z,2.2
2022-09-02T02:39:29.475Z,2
2022-09-02T02:40:39.247Z,2.4
2022-09-02T02:41:48.807Z,2.2
2022-09-02T02:42:57.472Z,1.4
2022-09-02T02:44:07.151Z,1.4
2022-09-02T02:45:16.783Z,1
2022-09-02T02:46:26.470Z,2.7
2022-09-02T02:47:35.096Z,2.1
2022-09-02T02:48:44.877Z,2.2
2022-09-02T02:49:54.565Z,1.4
2022-09-02T02:51:04.220Z,1.3
2022-09-02T02:52:12.918Z,1.2
2022-09-02T02:53:22.673Z,1
2022-09-02T02:54:34.832Z,1
2022-09-02T02:55:40.849Z,1.5
2022-09-02T02:56:49.499Z,2.4
2022-09-02T02:57:58.163Z,5.8
2022-09-02T02:59:07.820Z,1.1
2022-09-02T03:00:16.501Z,1.1
2022-09-02T03:01:25.254Z,1.8
2022-09-02T03:02:34.907Z,1.6
2022-09-02T03:03:44.503Z,1.3
2022-09-02T03:04:54.170Z,2.3
2022-09-02T03:06:03.865Z,1.2
2022-09-02T03:07:11.556Z,1.5
2022-09-02T03:08:21.208Z,1.5
2022-09-02T03:09:29.861Z,1.4
2022-09-02T03:10:37.502Z,1.9
2022-09-02T03:11:47.197Z,2.2
2022-09-02T03:12:55.875Z,1.1
2022-09-02T03:14:04.557Z,2.9
2022-09-02T03:15:14.209Z,1.2
2022-09-02T03:16:21.905Z,1.7
2022-09-02T03:17:31.541Z,1.7
2022-09-02T03:18:40.197Z,1.9
2022-09-02T03:19:47.852Z,2.1
2022-09-02T03:20:57.517Z,2
2022-09-02T03:22:07.170Z,3.5
2022-09-02T03:23:16.860Z,3.2
2022-09-02T03:24:25.512Z,2
2022-09-02T03:25:36.031Z,1.6
2022-09-02T03:26:45.786Z,2.3
2022-09-02T03:27:55.440Z,1.8
2022-09-02T03:29:03.197Z,2.1
2022-09-02T03:30:12.869Z,2
2022-09-02T03:31:21.627Z,2.4
2022-09-02T03:32:31.181Z,3
2022-09-02T03:33:39.852Z,2
2022-09-02T03:34:48.703Z,1.3
2022-09-02T03:35:58.369Z,1.5
2022-09-02T03:37:07.026Z,2.9
2022-09-02T03:38:14.682Z,2.4
2022-09-02T03:39:24.349Z,1.4
2022-09-02T03:40:33.049Z,1.8
2022-09-02T03:41:41.701Z,1.6
2022-09-02T03:42:51.366Z,1.6
2022-09-02T03:44:00.062Z,2.1
2022-09-02T03:45:09.707Z,1.3
2022-09-02T03:46:18.454Z,1.9
2022-09-02T03:47:26.043Z,2
2022-09-02T03:48:35.705Z,1.5
2022-09-02T03:49:44.343Z,2.2
2022-09-02T03:50:53.020Z,2.7
2022-09-02T03:52:01.709Z,1.7
2022-09-02T03:53:11.625Z,2.5
2022-09-02T03:54:21.061Z,1.5
2022-09-02T03:55:28.698Z,1.6
2022-09-02T03:56:37.466Z,1.9
2022-09-02T03:57:47.158Z,1.9
2022-09-02T03:58:55.819Z,1.5
2022-09-02T04:00:04.481Z,2.6
2022-09-02T04:01:13.184Z,2.5
2022-09-02T04:02:20.924Z,2.1
2022-09-02T04:03:30.521Z,2.6
2022-09-02T04:04:40.203Z,2.3
2022-09-02T04:05:48.862Z,2.4
2022-09-02T04:06:58.519Z,2.6
2022-09-02T04:08:08.210Z,2.1
2022-09-02T04:09:17.897Z,1.5
2022-09-02T04:10:26.542Z,1.2
2022-09-02T04:11:34.198Z,1.4
2022-09-02T04:12:43.872Z,1.6
2022-09-02T04:13:52.522Z,3
2022-09-02T04:15:00.209Z,1.8
2022-09-02T04:16:10.432Z,1.4
2022-09-02T04:17:18.523Z,1.4
2022-09-02T04:18:28.173Z,1.8
2022-09-02T04:19:36.844Z,1.5
2022-09-02T04:20:45.525Z,2
2022-09-02T04:21:55.198Z,1.7
2022-09-02T04:23:03.868Z,1.5
2022-09-02T04:24:11.513Z,2.3
2022-09-02T04:25:24.193Z,2.3
2022-09-02T04:26:31.849Z,1.9
2022-09-02T04:27:40.494Z,3.3
2022-09-02T04:28:49.193Z,3.2
2022-09-02T04:29:56.875Z,1.4
2022-09-02T04:31:05.578Z,2.2
2022-09-02T04:32:14.237Z,2.5
2022-09-02T04:33:23.911Z,1.7
2022-09-02T04:34:32.575Z,1.9
2022-09-02T04:35:42.240Z,2.1
2022-09-02T04:36:51.924Z,2
2022-09-02T04:38:00.598Z,1.7
2022-09-02T04:39:09.275Z,2.1
2022-09-02T04:40:16.997Z,2.1
2022-09-02T04:41:25.581Z,2.4
2022-09-02T04:42:35.245Z,1.5
2022-09-02T04:43:43.958Z,1.7
2022-09-02T04:44:51.612Z,3
2022-09-02T04:46:01.325Z,3.2
2022-09-02T04:47:09.972Z,2.8
2022-09-02T04:48:19.640Z,2.1
2022-09-02T04:49:29.353Z,2.3
2022-09-02T04:50:38.019Z,2.9
2022-09-02T04:51:47.686Z,2.6
2022-09-02T04:52:56.420Z,4.2
2022-09-02T04:54:05.119Z,3.3
2022-09-02T04:55:14.957Z,3.3
2022-09-02T04:56:23.599Z,2.3
2022-09-02T04:57:32.258Z,2.6
2022-09-02T04:58:40.921Z,1.5
2022-09-02T04:59:49.578Z,2.7
2022-09-02T05:00:59.267Z,2.6
2022-09-02T05:02:07.990Z,2.5
2022-09-02T05:03:16.620Z,1.5
2022-09-02T05:04:26.290Z,2.2
2022-09-02T05:05:33.949Z,2.8
2022-09-02T05:06:44.456Z,1.7
2022-09-02T05:07:53.257Z,1.5
2022-09-02T05:09:00.954Z,1.6
2022-09-02T05:10:10.611Z,1.5
2022-09-02T05:11:18.258Z,1.8
2022-09-02T05:12:25.958Z,1.5
2022-09-02T05:13:35.624Z,1.8
2022-09-02T05:14:44.281Z,3.3
2022-09-02T05:15:53.990Z,2.7
2022-09-02T05:17:06.818Z,1.9
2022-09-02T05:18:11.322Z,2
2022-09-02T05:19:21.000Z,1.6
2022-09-02T05:20:29.709Z,2.5
2022-09-02T05:21:37.374Z,2.9
2022-09-02T05:22:46.117Z,1.8
2022-09-02T05:23:54.854Z,2.8
2022-09-02T05:25:03.532Z,2.7
2022-09-02T05:26:12.234Z,2.2
2022-09-02T05:27:19.895Z,3.1
2022-09-02T05:28:29.559Z,3.3
2022-09-02T05:29:39.236Z,2.8
2022-09-02T05:30:47.938Z,2.5
2022-09-02T05:31:57.557Z,3.8
2022-09-02T05:33:07.223Z,3.5
2022-09-02T05:34:16.967Z,2.5
2022-09-02T05:35:26.693Z,2.4
2022-09-02T05:36:34.339Z,7.9
2022-09-02T05:37:44.077Z,3.1
2022-09-02T05:38:52.728Z,1.1
2022-09-02T05:40:02.391Z,1.7
2022-09-02T05:41:11.220Z,2.3
2022-09-02T05:42:19.881Z,2.9
2022-09-02T05:43:28.542Z,3.7
2022-09-02T05:44:38.199Z,1.8
2022-09-02T05:45:45.948Z,3.3
2022-09-02T05:46:55.545Z,3.1
2022-09-02T05:48:04.205Z,2.9
2022-09-02T05:49:11.851Z,2.1
2022-09-02T05:50:21.545Z,1.8
2022-09-02T05:51:31.218Z,3.2
2022-09-02T05:52:39.954Z,3
2022-09-02T05:53:48.750Z,2.3
2022-09-02T05:54:57.469Z,2.7
2022-09-02T05:56:07.185Z,1.7
2022-09-02T05:57:15.875Z,2.4
2022-09-02T05:58:23.687Z,1.6
2022-09-02T05:59:33.366Z,2.7
2022-09-02T06:00:42.035Z,1.9
2022-09-02T06:01:50.771Z,2.6
2022-09-02T06:02:59.392Z,3.3
2022-09-02T06:04:07.058Z,2.1
2022-09-02T06:05:15.716Z,1.7
2022-09-02T06:06:24.397Z,3.2
2022-09-02T06:07:33.078Z,2.1
2022-09-02T06:08:42.755Z,1.1
2022-09-02T06:09:51.445Z,1.6
2022-09-02T06:11:01.114Z,1.3
2022-09-02T06:12:09.780Z,2.1
2022-09-02T06:13:18.490Z,2.4
2022-09-02T06:14:28.122Z,2.2
2022-09-02T06:15:36.871Z,1.5
2022-09-02T06:16:45.496Z,2
2022-09-02T06:17:55.155Z,1.3
2022-09-02T06:19:03.833Z,2.6
2022-09-02T06:20:13.489Z,1
2022-09-02T06:21:24.181Z,0.8
2022-09-02T06:22:31.821Z,1.4
2022-09-02T06:23:41.498Z,1.4
2022-09-02T06:24:50.155Z,2
2022-09-02T06:25:59.845Z,2
2022-09-02T06:27:09.546Z,4.9
2022-09-02T06:28:17.201Z,1.1
2022-09-02T06:29:26.878Z,1.1
2022-09-02T06:30:35.541Z,1.5
2022-09-02T06:31:45.198Z,1.6
2022-09-02T06:32:53.961Z,2.2
2022-09-02T06:34:03.757Z,1.8
2022-09-02T06:35:13.362Z,2.5
2022-09-02T06:36:23.032Z,1.9
2022-09-02T06:37:31.679Z,1.8
2022-09-02T06:38:45.228Z,1.6
2022-09-02T06:39:51.077Z,1.3
2022-09-02T06:41:00.726Z,2.3
2022-09-02T06:42:09.377Z,1.6
2022-09-02T06:43:17.025Z,0.8
2022-09-02T06:44:26.827Z,1.5
2022-09-02T06:45:35.496Z,3.1
2022-09-02T06:46:45.163Z,1.8
2022-09-02T06:47:54.861Z,2.7
2022-09-02T06:49:03.531Z,1.1
2022-09-02T06:50:12.213Z,1.4
2022-09-02T06:51:20.949Z,3.4
2022-09-02T06:52:28.640Z,1
2022-09-02T06:53:38.293Z,1.6
2022-09-02T06:54:46.956Z,1.3
2022-09-02T06:55:54.626Z,0.8
2022-09-02T06:57:04.317Z,1.1
2022-09-02T06:58:12.968Z,1.9
2022-09-02T06:59:21.639Z,1.2
2022-09-02T07:00:31.334Z,1.8
2022-09-02T07:01:39.226Z,1.6
2022-09-02T07:02:48.788Z,1.4
2022-09-02T07:03:57.440Z,0.6
2022-09-02T07:05:05.119Z,0.7
2022-09-02T07:06:14.778Z,1.2
2022-09-02T07:07:23.436Z,1.5
2022-09-02T07:08:32.145Z,2.7
2022-09-02T07:09:40.913Z,1.5
2022-09-02T07:10:48.543Z,1.2
2022-09-02T07:12:02.127Z,1
2022-09-02T07:13:07.900Z,1.4
2022-09-02T07:14:15.560Z,0.8
2022-09-02T07:15:25.251Z,2.1
2022-09-02T07:16:34.970Z,1.5
2022-09-02T07:17:43.593Z,1
2022-09-02T07:18:52.281Z,1
2022-09-02T07:20:00.944Z,1.1
2022-09-02T07:21:10.604Z,1.1
2022-09-02T07:22:19.246Z,1.2
2022-09-02T07:23:26.918Z,1.2
2022-09-02T07:24:36.607Z,0.8
2022-09-02T07:25:45.255Z,1.1
2022-09-02T07:26:55.637Z,0.7
2022-09-02T07:28:04.671Z,0.9
2022-09-02T07:29:14.335Z,1
2022-09-02T07:30:24.126Z,0.8
2022-09-02T07:31:32.658Z,0.7
2022-09-02T07:32:40.323Z,1
2022-09-02T07:33:50.274Z,1
2022-09-02T07:34:59.699Z,0.5
2022-09-02T07:36:11.033Z,0.4
2022-09-02T07:37:20.041Z,1
2022-09-02T07:38:30.697Z,1.4
2022-09-02T07:39:40.390Z,0.6
2022-09-02T07:40:50.063Z,0.5
2022-09-02T07:41:59.778Z,0.9
2022-09-02T07:43:09.485Z,1.8
2022-09-02T07:44:18.129Z,1
2022-09-02T07:45:26.828Z,1
2022-09-02T07:46:35.490Z,0.8
2022-09-02T07:47:44.301Z,0.7
2022-09-02T07:48:53.982Z,0.3
2022-09-02T07:50:20.520Z,0.5
2022-09-02T07:51:11.268Z,0.7
2022-09-02T07:52:20.962Z,0.3
2022-09-02T07:53:30.650Z,1.7
2022-09-02T07:54:40.393Z,0.6
2022-09-02T07:55:49.107Z,0.6
2022-09-02T07:56:57.784Z,0.4
2022-09-02T07:58:07.440Z,0.4
2022-09-02T07:59:16.127Z,0.3
2022-09-02T08:00:23.796Z,0.7
2022-09-02T08:01:33.544Z,0.6
2022-09-02T08:02:43.237Z,0.5
2022-09-02T08:03:51.820Z,0.5
2022-09-02T08:05:00.660Z,1
2022-09-02T08:06:09.330Z,0.5
2022-09-02T08:07:18.998Z,0.3
2022-09-02T08:08:26.667Z,0.7
2022-09-02T08:09:35.336Z,0.8
2022-09-02T08:10:45.032Z,0.7
2022-09-02T08:11:53.702Z,0.2
2022-09-02T08:13:02.359Z,0.7
2022-09-02T08:14:11.081Z,0.6
2022-09-02T08:15:18.742Z,0.7
2022-09-02T08:16:28.475Z,0.2
2022-09-02T08:17:38.095Z,0.4
2022-09-02T08:18:46.751Z,0.4
2022-09-02T08:19:56.416Z,1.2
2022-09-02T08:21:05.066Z,0.8
2022-09-02T08:22:13.778Z,0.3
2022-09-02T08:23:36.543Z,0.5
2022-09-02T08:24:32.162Z,0.4
2022-09-02T08:25:41.867Z,0.2
2022-09-02T08:26:50.524Z,0.3
2022-09-02T08:28:00.214Z,0.3
2022-09-02T08:29:10.588Z,0.9
2022-09-02T08:30:19.235Z,0.7
2022-09-02T08:31:29.028Z,0.5
2022-09-02T08:32:37.607Z,0.3
2022-09-02T08:33:46.277Z,0.3
2022-09-02T08:34:54.911Z,0.3
2022-09-02T08:36:02.555Z,0.5
2022-09-02T08:37:12.237Z,0.8
2022-09-02T08:38:22.180Z,0.4
2022-09-02T08:39:30.597Z,1.9
2022-09-02T08:40:40.297Z,0.2
2022-09-02T08:41:48.919Z,0.5
2022-09-02T08:42:58.633Z,0.2
2022-09-02T08:44:07.284Z,0.4
2022-09-02T08:45:14.964Z,0.6
2022-09-02T08:46:24.632Z,0.6
2022-09-02T08:47:34.296Z,0.4
2022-09-02T08:48:42.043Z,0.2
2022-09-02T08:49:51.720Z,0.5
2022-09-02T08:51:00.522Z,0.2
2022-09-02T08:52:09.197Z,0.2
2022-09-02T08:53:18.958Z,0.2
2022-09-02T08:54:27.486Z,0.3
2022-09-02T08:55:37.167Z,0.3
2022-09-02T08:56:45.857Z,0.7
2022-09-02T08:57:53.529Z,0.5
2022-09-02T08:59:03.175Z,0.4
2022-09-02T09:00:12.829Z,0.3
2022-09-02T09:01:21.559Z,0.3
2022-09-02T09:02:30.212Z,0.2
2022-09-02T09:03:38.828Z,0.4
2022-09-02T09:04:48.478Z,0.6
2022-09-02T09:05:57.134Z,0.7
2022-09-02T09:07:05.794Z,0.8
2022-09-02T09:08:15.700Z,0.8
2022-09-02T09:09:25.195Z,0.4
2022-09-02T09:10:33.852Z,0.6
2022-09-02T09:11:42.514Z,0.8
2022-09-02T09:12:50.146Z,0.1
2022-09-02T09:13:59.826Z,1
2022-09-02T09:15:08.468Z,0.5
2022-09-02T09:16:18.194Z,0.2
2022-09-02T09:17:27.816Z,0.4
2022-09-02T09:18:37.510Z,0.2
2022-09-02T09:19:46.243Z,0.3
2022-09-02T09:20:54.923Z,0.3
2022-09-02T09:22:03.598Z,0.6
2022-09-02T09:23:13.234Z,0.1
2022-09-02T09:24:21.925Z,0.4
2022-09-02T09:25:29.622Z,0.5
2022-09-02T09:26:39.297Z,0.2
2022-09-02T09:27:48.972Z,0.4
2022-09-02T09:28:57.637Z,0.3
2022-09-02T09:30:08.641Z,0.2
2022-09-02T09:31:16.103Z,0.4
2022-09-02T09:32:25.663Z,0.1
2022-09-02T09:33:34.296Z,0.6
2022-09-02T09:34:41.959Z,0.5
2022-09-02T09:35:51.646Z,0.3
2022-09-02T09:37:01.334Z,0.3
2022-09-02T09:38:11.042Z,0.1
2022-09-02T09:39:19.725Z,0.2
2022-09-02T09:40:28.425Z,0.4
2022-09-02T09:41:37.063Z,0.2
2022-09-02T09:42:49.819Z,0.3
2022-09-02T09:43:56.402Z,0.2
2022-09-02T09:45:06.074Z,0.8
2022-09-02T09:46:14.768Z,0.2
2022-09-02T09:47:23.412Z,0.1
2022-09-02T09:48:32.095Z,0.1
2022-09-02T09:49:39.787Z,0.5
2022-09-02T09:50:49.431Z,0.3
2022-09-02T09:51:59.090Z,0.2
2022-09-02T09:53:06.770Z,0.3
2022-09-02T09:54:16.580Z,0.2
2022-09-02T09:55:26.212Z,0.5
2022-09-02T09:56:36.923Z,0.7
2022-09-02T09:57:45.666Z,0.8
2022-09-02T09:58:54.191Z,0.8
2022-09-02T10:00:03.926Z,0.1
2022-09-02T10:01:12.677Z,0.3
2022-09-02T10:02:21.400Z,0.3
2022-09-02T10:03:32.961Z,1.3
2022-09-02T10:04:43.138Z,0.5
2022-09-02T10:05:50.316Z,0.2
2022-09-02T10:06:58.984Z,0.6
2022-09-02T10:08:09.838Z,0.3
2022-09-02T10:09:17.317Z,0.5
2022-09-02T10:10:27.022Z,0.4
2022-09-02T10:11:35.861Z,0.4
2022-09-02T10:12:45.526Z,0.3
2022-09-02T10:13:54.202Z,0.3
2022-09-02T10:15:02.907Z,0.5
2022-09-02T10:16:11.663Z,0.8
2022-09-02T10:17:20.315Z,0.5
2022-09-02T10:18:30.005Z,0.3
2022-09-02T10:19:38.662Z,0.4
2022-09-02T10:20:58.493Z,0.2
2022-09-02T10:21:59.025Z,0.1
2022-09-02T10:23:08.708Z,0.7
2022-09-02T10:24:18.422Z,0.1
2022-09-02T10:25:28.098Z,0.5
2022-09-02T10:26:37.832Z,0.3
2022-09-02T10:27:46.440Z,0.8
2022-09-02T10:28:56.470Z,0.1
2022-09-02T10:30:06.804Z,0.1
2022-09-02T10:31:15.502Z,0.2
2022-09-02T10:32:24.158Z,0.5
2022-09-02T10:33:33.854Z,0.2
2022-09-02T10:34:43.551Z,0.1
2022-09-02T10:35:52.230Z,0.2
2022-09-02T10:37:01.906Z,0.1
2022-09-02T10:38:10.560Z,0.3
2022-09-02T10:39:20.219Z,0.2
2022-09-02T10:40:29.005Z,0.4
2022-09-02T10:41:37.608Z,0.1
2022-09-02T10:42:47.263Z,0.5
2022-09-02T10:43:57.216Z,0
2022-09-02T10:45:04.614Z,0.2
2022-09-02T10:46:13.349Z,0.4
2022-09-02T10:47:20.994Z,0.5
2022-09-02T10:48:31.625Z,0.2
2022-09-02T10:49:40.289Z,0.3
2022-09-02T10:50:50.137Z,0.1
2022-09-02T10:51:59.688Z,0.2
2022-09-02T10:53:09.534Z,0.6
2022-09-02T10:54:18.079Z,0.4
2022-09-02T10:55:27.767Z,0.2
2022-09-02T10:56:36.418Z,0
2022-09-02T10:57:46.212Z,0.2
2022-09-02T10:58:55.952Z,0.1
2022-09-02T11:00:03.542Z,0.7
2022-09-02T11:01:13.315Z,0.3
2022-09-02T11:02:21.886Z,0.2
2022-09-02T11:03:31.630Z,0.3
2022-09-02T11:04:40.263Z,0.4
2022-09-02T11:05:47.922Z,0.3
2022-09-02T11:07:04.793Z,0.4
2022-09-02T11:08:08.249Z,1
2022-09-02T11:09:16.997Z,0.2
2022-09-02T11:10:26.630Z,4.3
2022-09-02T11:11:35.302Z,0.1
2022-09-02T11:12:43.983Z,0.1
2022-09-02T11:13:51.629Z,0.2
2022-09-02T11:15:00.367Z,0.1
2022-09-02T11:16:10.725Z,0.2
2022-09-02T11:17:19.667Z,0.3
2022-09-02T11:18:29.305Z,0.5
2022-09-02T11:19:39.013Z,0.1
2022-09-02T11:20:48.720Z,0.3
2022-09-02T11:21:57.388Z,0.2
2022-09-02T11:23:06.058Z,0.2
2022-09-02T11:24:13.711Z,0.1
2022-09-02T11:25:23.403Z,0.2
2022-09-02T11:26:33.110Z,0.3
2022-09-02T11:27:43.283Z,0.1
2022-09-02T11:28:52.527Z,0.1
2022-09-02T11:30:02.213Z,0.1
2022-09-02T11:31:10.899Z,0.2
2022-09-02T11:32:19.576Z,0.2
2022-09-02T11:33:29.285Z,0.1
2022-09-02T11:34:38.966Z,0
2022-09-02T11:35:47.623Z,0.6
2022-09-02T11:36:56.285Z,0.4
2022-09-02T11:38:06.062Z,0.4
2022-09-02T11:39:21.689Z,0.3
2022-09-02T11:40:34.100Z,0.2
2022-09-02T11:41:37.297Z,0.3
2022-09-02T11:42:43.698Z,0.2
2022-09-02T11:43:52.490Z,0.5
2022-09-02T11:45:01.068Z,0.3
2022-09-02T11:46:08.780Z,1.3
2022-09-02T11:47:17.433Z,0.1
2022-09-02T11:48:26.091Z,0.3
2022-09-02T11:49:33.797Z,0.9
2022-09-02T11:50:44.458Z,0.1
2022-09-02T11:51:53.120Z,0.2
2022-09-02T11:53:01.788Z,0.2
2022-09-02T11:54:11.446Z,0.4
2022-09-02T11:55:22.124Z,0.1
2022-09-02T11:56:31.826Z,0.7
2022-09-02T11:57:40.521Z,0.1
2022-09-02T11:58:49.217Z,0.3
2022-09-02T11:59:58.892Z,0.3
2022-09-02T12:01:07.672Z,0.2
2022-09-02T12:02:18.365Z,0.3
2022-09-02T12:04:06.704Z,0.7
2022-09-02T12:04:59.027Z,0.1
2022-09-02T12:05:48.437Z,0.1
2022-09-02T12:06:58.112Z,0.1
2022-09-02T12:08:07.648Z,0.4
2022-09-02T12:09:17.342Z,0.3
2022-09-02T12:10:26.022Z,0.2
2022-09-02T12:11:34.723Z,0.5
2022-09-02T12:12:43.436Z,0.3
2022-09-02T12:13:52.107Z,0.1
2022-09-02T12:15:01.783Z,0.2
2022-09-02T12:16:10.505Z,0.6
2022-09-02T12:17:19.168Z,0.1
2022-09-02T12:18:28.988Z,0.2
2022-09-02T12:19:37.645Z,0.2
2022-09-02T12:20:50.702Z,0.1
2022-09-02T12:21:57.970Z,0.1
2022-09-02T12:23:06.657Z,0.1
2022-09-02T12:24:15.398Z,0.1
2022-09-02T12:25:26.682Z,0.2
2022-09-02T12:26:34.785Z,0.2
2022-09-02T12:27:44.443Z,0
2022-09-02T12:28:52.101Z,0.1
2022-09-02T12:30:01.779Z,0.3
2022-09-02T12:31:10.531Z,0.2
2022-09-02T12:32:21.187Z,0.3
2022-09-02T12:33:30.883Z,0
2022-09-02T12:34:38.539Z,0.1
2022-09-02T12:35:48.303Z,0.2
2022-09-02T12:36:56.988Z,0.1
2022-09-02T12:38:06.652Z,0.1
2022-09-02T12:39:16.348Z,0.3
2022-09-02T12:40:25.054Z,0.1
2022-09-02T12:41:35.680Z,0
2022-09-02T12:42:46.675Z,0.2
2022-09-02T12:43:53.961Z,0.1
2022-09-02T12:45:04.677Z,0.1
2022-09-02T12:46:13.320Z,0.3
2022-09-02T12:47:20.984Z,0
2022-09-02T12:48:38.368Z,0.1
2022-09-02T12:49:39.289Z,0.2
2022-09-02T12:50:47.963Z,0
2022-09-02T12:51:57.638Z,0.3
2022-09-02T12:53:05.325Z,0.1
2022-09-02T12:54:14.006Z,0.1
2022-09-02T12:55:22.646Z,0.1
2022-09-02T12:56:31.287Z,0.1
2022-09-02T12:57:40.958Z,0.3
2022-09-02T12:58:50.642Z,0.1
2022-09-02T12:59:59.306Z,0.3
2022-09-02T13:01:07.961Z,0.4
2022-09-02T13:02:16.743Z,0.6
2022-09-02T13:03:26.422Z,0.8
2022-09-02T13:04:36.281Z,0.2
2022-09-02T13:05:44.929Z,0.4
2022-09-02T13:06:54.583Z,0.2
2022-09-02T13:08:04.225Z,1
2022-09-02T13:09:13.926Z,0.6
2022-09-02T13:10:23.573Z,0.1
2022-09-02T13:11:32.240Z,0.4
2022-09-02T13:12:41.918Z,0.4
2022-09-02T13:13:50.600Z,0.3
2022-09-02T13:14:59.257Z,0.2
2022-09-02T13:16:13.474Z,0.2
2022-09-02T13:17:35.384Z,0.1
2022-09-02T13:18:29.280Z,0.6
2022-09-02T13:19:38.962Z,0.2
2022-09-02T13:20:46.623Z,0.2
2022-09-02T13:21:57.346Z,0.2
2022-09-02T13:23:06.044Z,0.1
2022-09-02T13:24:15.782Z,0.6
2022-09-02T13:25:25.552Z,0.1
2022-09-02T13:26:49.178Z,0.4
2022-09-02T13:27:46.816Z,0.3
2022-09-02T13:28:55.490Z,0.1
2022-09-02T13:30:04.239Z,0
2022-09-02T13:31:13.893Z,0.3
2022-09-02T13:32:22.549Z,0.2
2022-09-02T13:33:30.264Z,0.1
2022-09-02T13:34:39.924Z,0.3
2022-09-02T13:35:48.609Z,0.2
2022-09-02T13:36:58.296Z,0.2
2022-09-02T13:38:08.037Z,0
2022-09-02T13:39:16.680Z,0.6
2022-09-02T13:40:26.359Z,0.1
2022-09-02T13:41:36.021Z,0.4
2022-09-02T13:42:44.705Z,0.2
2022-09-02T13:43:54.393Z,0.2
2022-09-02T13:45:03.149Z,0.1
2022-09-02T13:46:11.845Z,0.1
2022-09-02T13:47:20.673Z,0.7
2022-09-02T13:48:30.315Z,0
2022-09-02T13:49:39.968Z,0.3
2022-09-02T13:50:48.667Z,0.2
2022-09-02T13:51:56.657Z,0.2
2022-09-02T13:54:22.905Z,0.2
2022-09-02T13:55:26.265Z,0.1
2022-09-02T13:56:36.989Z,0.3
2022-09-02T13:57:44.666Z,0.4
2022-09-02T13:58:54.353Z,0.3
2022-09-02T14:00:03.168Z,0.1
2022-09-02T14:01:10.832Z,0.4
2022-09-02T14:02:20.611Z,0.1
2022-09-02T14:03:29.238Z,0.1
2022-09-02T14:04:37.784Z,0.1
2022-09-02T14:05:47.745Z,0.1
2022-09-02T14:06:57.067Z,0.3
2022-09-02T14:08:06.754Z,0.1
2022-09-02T14:09:15.447Z,0
2022-09-02T14:10:25.117Z,0.2
2022-09-02T14:11:34.793Z,0.2
2022-09-02T14:12:43.519Z,0.1
2022-09-02T14:13:52.236Z,0.1
2022-09-02T14:15:00.932Z,0.1
2022-09-02T14:16:08.646Z,0.4
2022-09-02T14:17:18.267Z,0.1
2022-09-02T14:18:27.002Z,0.3
2022-09-02T14:19:34.672Z,0.1
2022-09-02T14:20:43.386Z,0.1
2022-09-02T14:21:51.004Z,0.1
2022-09-02T14:23:00.679Z,0.1
2022-09-02T14:24:09.316Z,0.2
2022-09-02T14:25:19.164Z,0.2
2022-09-02T14:26:29.904Z,0.1
2022-09-02T14:27:38.587Z,0.3
2022-09-02T14:28:47.244Z,0.9
2022-09-02T14:29:55.913Z,0.2
2022-09-02T14:31:03.660Z,0.2
2022-09-02T14:32:13.254Z,6.4
2022-09-02T14:33:22.923Z,0.1
2022-09-02T14:34:32.603Z,0.2
2022-09-02T14:35:42.263Z,0.2
2022-09-02T14:36:50.953Z,0.1
2022-09-02T14:38:00.630Z,0.2
2022-09-02T14:39:09.296Z,0.8
2022-09-02T14:40:17.964Z,0.2
2022-09-02T14:41:27.639Z,0.1
2022-09-02T14:42:36.413Z,0.7
2022-09-02T14:43:45.093Z,0.2
2022-09-02T14:44:53.931Z,0.2
2022-09-02T14:46:03.651Z,0.3
2022-09-02T14:47:13.303Z,0.3
2022-09-02T14:48:23.012Z,0.1
2022-09-02T14:49:31.651Z,0.9
2022-09-02T14:50:41.373Z,0.1
2022-09-02T14:51:51.024Z,0.1
2022-09-02T14:52:59.683Z,0.1
2022-09-02T14:54:09.468Z,0.1
2022-09-02T14:55:17.136Z,0.1
2022-09-02T14:56:26.822Z,0.2
2022-09-02T14:57:36.518Z,0.2
2022-09-02T14:58:44.160Z,0.5
2022-09-02T14:59:53.881Z,0.1
2022-09-02T15:01:02.627Z,0.2
2022-09-02T15:02:12.228Z,0.3
2022-09-02T15:03:20.923Z,0.8
2022-09-02T15:04:28.581Z,0.2
2022-09-02T15:05:38.271Z,0.1
2022-09-02T15:06:47.921Z,0.1
2022-09-02T15:07:57.608Z,0.1
2022-09-02T15:09:07.320Z,0.5
2022-09-02T15:10:15.969Z,0.1
2022-09-02T15:11:24.669Z,0
2022-09-02T15:12:33.325Z,0.1
2022-09-02T15:13:40.992Z,0.3
2022-09-02T15:14:50.646Z,0.4
2022-09-02T15:16:00.342Z,1.4
2022-09-02T15:17:09.019Z,0.4
2022-09-02T15:18:18.714Z,0.5
2022-09-02T15:19:27.368Z,0.1
2022-09-02T15:20:36.103Z,0.5
2022-09-02T15:21:44.754Z,0.3
2022-09-02T15:22:51.420Z,0.1
2022-09-02T15:24:01.099Z,0.5
2022-09-02T15:25:09.782Z,0.2
2022-09-02T15:26:18.436Z,0.2
2022-09-02T15:27:28.138Z,0.2
2022-09-02T15:28:37.957Z,0.1
2022-09-02T15:29:46.615Z,0
2022-09-02T15:30:55.310Z,0.5
2022-09-02T15:32:03.970Z,0.1
2022-09-02T15:33:16.522Z,0.7
2022-09-02T15:34:23.302Z,0.1
2022-09-02T15:35:31.950Z,0.3
2022-09-02T15:36:41.662Z,0.2
2022-09-02T15:37:51.316Z,0.2
2022-09-02T15:38:59.955Z,0
2022-09-02T15:40:08.695Z,0.1
2022-09-02T15:41:16.427Z,0
2022-09-02T15:42:26.227Z,0.1
2022-09-02T15:43:34.888Z,0
2022-09-02T15:44:42.544Z,0.3
2022-09-02T15:45:52.293Z,0.6
2022-09-02T15:47:00.924Z,0.1
2022-09-02T15:48:10.631Z,0.1
2022-09-02T15:49:19.295Z,0.1
2022-09-02T15:50:28.306Z,0
2022-09-02T15:51:37.780Z,0.5
2022-09-02T15:52:47.437Z,0.1
2022-09-02T15:53:55.103Z,0.5
2022-09-02T15:55:04.781Z,0.3
2022-09-02T15:56:13.438Z,0.7
2022-09-02T15:57:23.132Z,0.2
2022-09-02T15:58:31.826Z,0.4